National Weather Service United States Department of Commerce
Customize Your Weather.gov

LOADING...


********************** NWR roundup for JUN 16 at 11 SST ***********************

PAGO PAGO AIRPORT 162150Z 15009G16KT 08SM -SHRA SCT015TCU 27/25 A2995 RMK
FALEOLO AIRPORT   162200Z 01006KT 9999 SCT022 30/26 Q1014
NANDI             162200Z 00000KT 9999 FEW028 SCT050 BKN120 27/23 Q1014 
AUCKLAND          082000Z AUTO 04004KT 340V060 9999 NCD 18/16 Q1013
SIDNEY            162230Z 25015KT 9999 FEW028 BKN037 11/05 Q1013
HONOLULU AIRPORT  162153Z 04014G23KT 10SM FEW029 SCT045 30/17 A3006